sensor_id;sensor_type;location;lat;lon;timestamp;pressure;altitude;pressure_sealevel;temperature;humidity
56582;BME280;42463;52.214;21.238;2024-01-16T07:48:38;98962.30;;;17.79;56.40
56582;BME280;42463;52.214;21.238;2024-01-16T07:51:11;98970.86;;;18.04;56.67
56582;BME280;42463;52.214;21.238;2024-01-16T07:53:43;98966.98;;;18.35;56.44
56582;BME280;42463;52.214;21.238;2024-01-16T07:56:16;98975.02;;;18.68;55.73
56582;BME280;42463;52.214;21.238;2024-01-16T07:58:49;98981.70;;;19.02;54.92
56582;BME280;42463;52.214;21.238;2024-01-16T08:01:22;98982.53;;;19.35;54.13
56582;BME280;42463;52.214;21.238;2024-01-16T08:03:54;98986.23;;;19.66;53.34
56582;BME280;42463;52.214;21.238;2024-01-16T08:06:27;98994.05;;;19.94;52.62
56582;BME280;42463;52.214;21.238;2024-01-16T08:09:00;98992.80;;;20.20;51.91
56582;BME280;42463;52.214;21.238;2024-01-16T08:11:32;98993.70;;;20.45;51.29
56582;BME280;42463;52.214;21.238;2024-01-16T08:14:07;98997.98;;;20.68;50.61
56582;BME280;42463;52.214;21.238;2024-01-16T08:16:39;99006.07;;;20.88;50.41
56582;BME280;42463;52.214;21.238;2024-01-16T08:19:11;99009.83;;;21.07;49.80
56582;BME280;42463;52.214;21.238;2024-01-16T08:21:43;99017.96;;;21.24;49.35
56582;BME280;42463;52.214;21.238;2024-01-16T08:24:22;99017.47;;;21.41;48.98
56582;BME280;42463;52.214;21.238;2024-01-16T08:26:55;99020.40;;;21.56;48.60
56582;BME280;42463;52.214;21.238;2024-01-16T08:29:28;99023.55;;;21.70;48.21
56582;BME280;42463;52.214;21.238;2024-01-16T08:32:01;99017.17;;;21.82;47.78
56582;BME280;42463;52.214;21.238;2024-01-16T08:34:33;99027.06;;;21.94;47.26
56582;BME280;42463;52.214;21.238;2024-01-16T08:37:06;99032.63;;;22.03;46.70
56582;BME280;42463;52.214;21.238;2024-01-16T08:39:38;99030.30;;;22.12;46.87
56582;BME280;42463;52.214;21.238;2024-01-16T08:42:11;99036.27;;;22.22;46.48
56582;BME280;42463;52.214;21.238;2024-01-16T08:44:43;99044.87;;;22.31;46.18
56582;BME280;42463;52.214;21.238;2024-01-16T08:47:16;99048.41;;;22.39;45.89
56582;BME280;42463;52.214;21.238;2024-01-16T08:49:48;99052.48;;;22.46;45.57
56582;BME280;42463;52.214;21.238;2024-01-16T08:52:21;99053.96;;;22.53;45.38
56582;BME280;42463;52.214;21.238;2024-01-16T08:54:53;99059.45;;;22.59;45.25
56582;BME280;42463;52.214;21.238;2024-01-16T08:57:26;99070.06;;;22.66;44.92
56582;BME280;42463;52.214;21.238;2024-01-16T08:59:59;99067.46;;;22.71;44.69
56582;BME280;42463;52.214;21.238;2024-01-16T09:02:31;99080.27;;;22.76;44.64
56582;BME280;42463;52.214;21.238;2024-01-16T09:05:04;99082.02;;;22.80;44.20
56582;BME280;42463;52.214;21.238;2024-01-16T09:07:37;99084.56;;;22.85;44.28
56582;BME280;42463;52.214;21.238;2024-01-16T09:10:11;99086.55;;;22.89;43.95
56582;BME280;42463;52.214;21.238;2024-01-16T09:12:43;99093.83;;;22.93;43.79
56582;BME280;42463;52.214;21.238;2024-01-16T09:15:16;99097.85;;;22.97;43.69
56582;BME280;42463;52.214;21.238;2024-01-16T09:17:48;99099.33;;;23.00;43.63
56582;BME280;42463;52.214;21.238;2024-01-16T09:20:21;99096.77;;;23.03;43.33
56582;BME280;42463;52.214;21.238;2024-01-16T09:22:53;99095.14;;;23.06;43.21
56582;BME280;42463;52.214;21.238;2024-01-16T09:25:25;99101.45;;;23.09;43.15
56582;BME280;42463;52.214;21.238;2024-01-16T09:28:00;99099.52;;;23.11;42.89
56582;BME280;42463;52.214;21.238;2024-01-16T09:30:32;99096.00;;;23.14;42.77
56582;BME280;42463;52.214;21.238;2024-01-16T09:33:05;99098.80;;;23.16;42.66
56582;BME280;42463;52.214;21.238;2024-01-16T09:35:41;99103.34;;;23.19;42.54
56582;BME280;42463;52.214;21.238;2024-01-16T09:38:13;99103.86;;;23.21;42.33
56582;BME280;42463;52.214;21.238;2024-01-16T09:40:46;99105.08;;;23.23;42.13
56582;BME280;42463;52.214;21.238;2024-01-16T09:43:19;99104.95;;;23.26;42.24
56582;BME280;42463;52.214;21.238;2024-01-16T09:45:52;99110.98;;;23.27;42.02
56582;BME280;42463;52.214;21.238;2024-01-16T09:48:27;99112.84;;;23.29;42.22
56582;BME280;42463;52.214;21.238;2024-01-16T09:51:00;99108.27;;;23.30;41.78
56582;BME280;42463;52.214;21.238;2024-01-16T09:53:33;99113.28;;;23.32;41.95
56582;BME280;42463;52.214;21.238;2024-01-16T09:56:09;99114.34;;;23.34;41.76
56582;BME280;42463;52.214;21.238;2024-01-16T09:58:50;99113.89;;;23.35;41.38
56582;BME280;42463;52.214;21.238;2024-01-16T10:01:27;99122.45;;;23.37;41.53
56582;BME280;42463;52.214;21.238;2024-01-16T10:04:00;99125.01;;;23.38;41.43
56582;BME280;42463;52.214;21.238;2024-01-16T10:06:34;99131.59;;;23.40;41.49
56582;BME280;42463;52.214;21.238;2024-01-16T10:09:08;99132.64;;;23.41;41.10
56582;BME280;42463;52.214;21.238;2024-01-16T10:11:43;99139.23;;;23.43;41.29
56582;BME280;42463;52.214;21.238;2024-01-16T10:14:16;99144.40;;;23.45;40.98
56582;BME280;42463;52.214;21.238;2024-01-16T10:17:03;99150.05;;;23.46;40.98
56582;BME280;42463;52.214;21.238;2024-01-16T10:19:37;99151.27;;;23.48;40.73
56582;BME280;42463;52.214;21.238;2024-01-16T10:22:24;99155.48;;;23.50;40.81
56582;BME280;42463;52.214;21.238;2024-01-16T10:25:11;99157.56;;;23.52;40.91
56582;BME280;42463;52.214;21.238;2024-01-16T10:27:48;99167.23;;;23.53;40.57
56582;BME280;42463;52.214;21.238;2024-01-16T10:30:23;99170.15;;;23.55;40.67
56582;BME280;42463;52.214;21.238;2024-01-16T10:33:14;99172.63;;;23.57;40.75
56582;BME280;42463;52.214;21.238;2024-01-16T10:35:47;99176.77;;;23.58;40.56
56582;BME280;42463;52.214;21.238;2024-01-16T10:38:24;99179.86;;;23.60;40.65
56582;BME280;42463;52.214;21.238;2024-01-16T10:41:12;99179.59;;;23.62;40.55
56582;BME280;42463;52.214;21.238;2024-01-16T10:43:45;99179.77;;;23.63;40.26
56582;BME280;42463;52.214;21.238;2024-01-16T10:46:18;99180.90;;;23.65;40.22
56582;BME280;42463;52.214;21.238;2024-01-16T10:49:03;99176.83;;;23.67;40.22
56582;BME280;42463;52.214;21.238;2024-01-16T10:51:36;99182.86;;;23.69;40.29
56582;BME280;42463;52.214;21.238;2024-01-16T10:54:13;99180.12;;;23.71;40.31
56582;BME280;42463;52.214;21.238;2024-01-16T10:56:47;99188.69;;;23.73;40.27
56582;BME280;42463;52.214;21.238;2024-01-16T10:59:27;99185.48;;;23.74;40.27
56582;BME280;42463;52.214;21.238;2024-01-16T11:02:12;99189.85;;;23.76;40.21
56582;BME280;42463;52.214;21.238;2024-01-16T11:04:47;99199.14;;;23.78;39.97
56582;BME280;42463;52.214;21.238;2024-01-16T11:07:21;99200.20;;;23.80;40.00
56582;BME280;42463;52.214;21.238;2024-01-16T11:09:56;99198.58;;;23.82;39.93
56582;BME280;42463;52.214;21.238;2024-01-16T11:12:30;99198.60;;;23.84;39.84
56582;BME280;42463;52.214;21.238;2024-01-16T11:15:04;99202.84;;;23.86;39.87
56582;BME280;42463;52.214;21.238;2024-01-16T11:17:39;99203.48;;;23.88;39.81
56582;BME280;42463;52.214;21.238;2024-01-16T11:20:14;99205.02;;;23.90;39.88
56582;BME280;42463;52.214;21.238;2024-01-16T11:22:47;99199.02;;;23.92;39.68
56582;BME280;42463;52.214;21.238;2024-01-16T11:25:21;99205.71;;;23.93;39.86
56582;BME280;42463;52.214;21.238;2024-01-16T11:28:11;99205.28;;;23.95;39.68
56582;BME280;42463;52.214;21.238;2024-01-16T11:30:44;99212.51;;;23.97;39.58
56582;BME280;42463;52.214;21.238;2024-01-16T11:33:46;99211.96;;;23.97;39.84
56582;BME280;42463;52.214;21.238;2024-01-16T11:37:01;99214.84;;;23.99;39.69
56582;BME280;42463;52.214;21.238;2024-01-16T11:39:34;99211.13;;;24.00;39.51
56582;BME280;42463;52.214;21.238;2024-01-16T11:42:07;99213.99;;;24.01;39.63
56582;BME280;42463;52.214;21.238;2024-01-16T11:44:41;99213.05;;;24.02;39.43
56582;BME280;42463;52.214;21.238;2024-01-16T11:47:19;99216.77;;;24.01;39.58
56582;BME280;42463;52.214;21.238;2024-01-16T11:50:09;99217.55;;;24.01;39.46
56582;BME280;42463;52.214;21.238;2024-01-16T11:52:46;99217.23;;;24.00;39.44
56582;BME280;42463;52.214;21.238;2024-01-16T11:55:32;99221.76;;;24.01;39.38
56582;BME280;42463;52.214;21.238;2024-01-16T11:58:34;99219.54;;;24.01;39.35
56582;BME280;42463;52.214;21.238;2024-01-16T12:01:11;99229.27;;;24.01;39.20
56582;BME280;42463;52.214;21.238;2024-01-16T12:03:44;99232.28;;;24.01;39.19
56582;BME280;42463;52.214;21.238;2024-01-16T12:06:18;99233.95;;;24.02;39.44
56582;BME280;42463;52.214;21.238;2024-01-16T12:08:49;99230.23;;;24.02;39.32
56582;BME280;42463;52.214;21.238;2024-01-16T12:11:22;99233.63;;;24.01;39.10
56582;BME280;42463;52.214;21.238;2024-01-16T12:14:04;99238.94;;;24.02;39.24
56582;BME280;42463;52.214;21.238;2024-01-16T12:16:37;99248.77;;;24.02;39.05
56582;BME280;42463;52.214;21.238;2024-01-16T12:19:10;99246.88;;;24.03;39.22
56582;BME280;42463;52.214;21.238;2024-01-16T12:21:44;99250.77;;;24.04;39.13
56582;BME280;42463;52.214;21.238;2024-01-16T12:24:19;99250.71;;;24.05;38.99
56582;BME280;42463;52.214;21.238;2024-01-16T12:26:51;99252.05;;;24.04;39.06
56582;BME280;42463;52.214;21.238;2024-01-16T12:29:23;99254.58;;;24.05;38.72
56582;BME280;42463;52.214;21.238;2024-01-16T12:32:09;99250.69;;;24.04;38.65
56582;BME280;42463;52.214;21.238;2024-01-16T12:34:49;99251.33;;;24.04;38.58
56582;BME280;42463;52.214;21.238;2024-01-16T12:37:21;99255.37;;;24.04;38.50
56582;BME280;42463;52.214;21.238;2024-01-16T12:39:54;99257.19;;;24.04;38.51
56582;BME280;42463;52.214;21.238;2024-01-16T12:42:28;99252.59;;;24.04;38.41
56582;BME280;42463;52.214;21.238;2024-01-16T12:45:06;99265.51;;;24.04;38.60
56582;BME280;42463;52.214;21.238;2024-01-16T12:47:40;99263.08;;;24.06;38.60
56582;BME280;42463;52.214;21.238;2024-01-16T12:50:20;99267.52;;;24.07;38.84
56582;BME280;42463;52.214;21.238;2024-01-16T12:53:02;99271.36;;;24.09;38.63
56582;BME280;42463;52.214;21.238;2024-01-16T12:55:37;99281.65;;;24.09;38.58
56582;BME280;42463;52.214;21.238;2024-01-16T12:58:18;99286.65;;;24.10;38.69
56582;BME280;42463;52.214;21.238;2024-01-16T13:00:52;99291.48;;;24.11;38.57
56582;BME280;42463;52.214;21.238;2024-01-16T13:03:27;99293.08;;;24.11;38.51
56582;BME280;42463;52.214;21.238;2024-01-16T13:06:02;99294.45;;;24.12;38.51
56582;BME280;42463;52.214;21.238;2024-01-16T13:08:35;99294.99;;;24.12;38.66
56582;BME280;42463;52.214;21.238;2024-01-16T13:11:09;99285.98;;;24.13;38.44
56582;BME280;42463;52.214;21.238;2024-01-16T13:13:42;99292.96;;;24.14;38.56
56582;BME280;42463;52.214;21.238;2024-01-16T13:16:15;99294.16;;;24.14;38.65
56582;BME280;42463;52.214;21.238;2024-01-16T13:18:48;99290.20;;;24.15;38.39
56582;BME280;42463;52.214;21.238;2024-01-16T13:21:32;99298.21;;;24.16;38.45
56582;BME280;42463;52.214;21.238;2024-01-16T13:24:06;99301.55;;;24.16;38.58
56582;BME280;42463;52.214;21.238;2024-01-16T13:26:39;99300.45;;;24.17;38.55
56582;BME280;42463;52.214;21.238;2024-01-16T13:29:12;99306.31;;;24.17;38.33
56582;BME280;42463;52.214;21.238;2024-01-16T13:31:44;99301.96;;;24.17;38.40
56582;BME280;42463;52.214;21.238;2024-01-16T13:34:16;99308.68;;;24.16;38.36
56582;BME280;42463;52.214;21.238;2024-01-16T13:36:52;99314.54;;;24.16;38.58
56582;BME280;42463;52.214;21.238;2024-01-16T13:39:26;99317.16;;;24.17;38.69
56582;BME280;42463;52.214;21.238;2024-01-16T13:41:59;99318.20;;;24.17;38.65
56582;BME280;42463;52.214;21.238;2024-01-16T13:44:31;99321.20;;;24.18;38.48
56582;BME280;42463;52.214;21.238;2024-01-16T13:47:04;99322.41;;;24.18;38.51
56582;BME280;42463;52.214;21.238;2024-01-16T13:49:37;99329.30;;;24.19;38.45
56582;BME280;42463;52.214;21.238;2024-01-16T13:52:11;99332.48;;;24.19;38.44
56582;BME280;42463;52.214;21.238;2024-01-16T13:54:43;99338.65;;;24.19;38.30
56582;BME280;42463;52.214;21.238;2024-01-16T13:57:16;99342.23;;;24.20;38.46
56582;BME280;42463;52.214;21.238;2024-01-16T13:59:48;99349.52;;;24.20;38.39
56582;BME280;42463;52.214;21.238;2024-01-16T14:02:22;99354.68;;;24.21;38.25
56582;BME280;42463;52.214;21.238;2024-01-16T14:04:54;99357.45;;;24.21;38.23
56582;BME280;42463;52.214;21.238;2024-01-16T14:07:27;99355.80;;;24.22;38.20
56582;BME280;42463;52.214;21.238;2024-01-16T14:09:59;99358.09;;;24.22;38.16
56582;BME280;42463;52.214;21.238;2024-01-16T14:12:31;99364.27;;;24.22;38.14
56582;BME280;42463;52.214;21.238;2024-01-16T14:15:05;99368.17;;;24.23;38.16
56582;BME280;42463;52.214;21.238;2024-01-16T14:17:48;99374.98;;;24.23;38.13
56582;BME280;42463;52.214;21.238;2024-01-16T14:20:23;99379.67;;;24.24;38.07
56582;BME280;42463;52.214;21.238;2024-01-16T14:22:57;99384.98;;;24.25;38.19
56582;BME280;42463;52.214;21.238;2024-01-16T14:25:29;99389.27;;;24.25;38.04
56582;BME280;42463;52.214;21.238;2024-01-16T14:28:05;99395.30;;;24.26;38.04
56582;BME280;42463;52.214;21.238;2024-01-16T14:30:37;99401.63;;;24.25;38.05
56582;BME280;42463;52.214;21.238;2024-01-16T14:33:09;99408.52;;;24.26;37.98
56582;BME280;42463;52.214;21.238;2024-01-16T14:35:43;99413.05;;;24.26;37.94
56582;BME280;42463;52.214;21.238;2024-01-16T14:38:15;99417.98;;;24.27;38.08
56582;BME280;42463;52.214;21.238;2024-01-16T14:40:48;99425.17;;;24.27;38.07
56582;BME280;42463;52.214;21.238;2024-01-16T14:43:22;99428.61;;;24.27;37.73
56582;BME280;42463;52.214;21.238;2024-01-16T14:45:55;99427.66;;;24.27;38.21
56582;BME280;42463;52.214;21.238;2024-01-16T14:48:29;99429.02;;;24.28;38.04
56582;BME280;42463;52.214;21.238;2024-01-16T14:51:02;99436.23;;;24.29;37.97
56582;BME280;42463;52.214;21.238;2024-01-16T14:53:35;99437.91;;;24.29;37.87
56582;BME280;42463;52.214;21.238;2024-01-16T14:56:08;99442.84;;;24.30;37.99
56582;BME280;42463;52.214;21.238;2024-01-16T14:58:41;99442.61;;;24.31;37.79
56582;BME280;42463;52.214;21.238;2024-01-16T15:01:15;99447.40;;;24.32;37.95
56582;BME280;42463;52.214;21.238;2024-01-16T15:03:50;99449.94;;;24.33;37.76
56582;BME280;42463;52.214;21.238;2024-01-16T15:06:23;99450.84;;;24.34;37.73
56582;BME280;42463;52.214;21.238;2024-01-16T15:08:57;99453.85;;;24.35;37.63
56582;BME280;42463;52.214;21.238;2024-01-16T15:11:30;99455.61;;;24.36;37.86
56582;BME280;42463;52.214;21.238;2024-01-16T15:14:02;99460.79;;;24.38;37.42
56582;BME280;42463;52.214;21.238;2024-01-16T15:16:35;99459.85;;;24.38;37.83
56582;BME280;42463;52.214;21.238;2024-01-16T15:19:08;99462.08;;;24.39;37.76
56582;BME280;42463;52.214;21.238;2024-01-16T15:21:41;99466.13;;;24.40;37.68
56582;BME280;42463;52.214;21.238;2024-01-16T15:24:15;99469.62;;;24.40;37.74
56582;BME280;42463;52.214;21.238;2024-01-16T15:26:51;99478.98;;;24.41;37.50
56582;BME280;42463;52.214;21.238;2024-01-16T15:29:25;99483.35;;;24.41;37.45
56582;BME280;42463;52.214;21.238;2024-01-16T15:31:58;99485.42;;;24.43;37.55
56582;BME280;42463;52.214;21.238;2024-01-16T15:34:31;99485.04;;;24.42;37.52
56582;BME280;42463;52.214;21.238;2024-01-16T15:37:03;99484.10;;;24.43;37.49
56582;BME280;42463;52.214;21.238;2024-01-16T15:39:36;99489.81;;;24.44;37.25
56582;BME280;42463;52.214;21.238;2024-01-16T15:42:09;99485.08;;;24.45;37.08
56582;BME280;42463;52.214;21.238;2024-01-16T15:44:43;99490.70;;;24.45;37.30
56582;BME280;42463;52.214;21.238;2024-01-16T15:47:16;99486.11;;;24.45;37.20
56582;BME280;42463;52.214;21.238;2024-01-16T15:49:52;99490.54;;;24.45;37.60
56582;BME280;42463;52.214;21.238;2024-01-16T15:52:27;99494.34;;;24.44;37.31
56582;BME280;42463;52.214;21.238;2024-01-16T15:55:00;99495.52;;;24.44;37.42
56582;BME280;42463;52.214;21.238;2024-01-16T15:57:33;99498.05;;;24.44;37.24
56582;BME280;42463;52.214;21.238;2024-01-16T16:00:08;99506.49;;;24.43;37.14
56582;BME280;42463;52.214;21.238;2024-01-16T16:02:42;99501.20;;;24.43;37.19
56582;BME280;42463;52.214;21.238;2024-01-16T16:05:18;99502.77;;;24.42;37.23
56582;BME280;42463;52.214;21.238;2024-01-16T16:07:52;99508.39;;;24.42;36.75
56582;BME280;42463;52.214;21.238;2024-01-16T16:10:25;99508.03;;;24.40;36.42
56582;BME280;42463;52.214;21.238;2024-01-16T16:12:58;99514.52;;;24.39;36.44
56582;BME280;42463;52.214;21.238;2024-01-16T16:15:31;99518.85;;;24.38;36.10
56582;BME280;42463;52.214;21.238;2024-01-16T16:18:04;99523.67;;;24.37;35.80
56582;BME280;42463;52.214;21.238;2024-01-16T16:20:39;99526.73;;;24.36;35.51
56582;BME280;42463;52.214;21.238;2024-01-16T16:23:11;99532.98;;;24.36;35.44
56582;BME280;42463;52.214;21.238;2024-01-16T16:25:47;99537.40;;;24.35;35.39
56582;BME280;42463;52.214;21.238;2024-01-16T16:28:20;99539.23;;;24.35;35.47
56582;BME280;42463;52.214;21.238;2024-01-16T16:30:53;99539.24;;;24.35;35.49
56582;BME280;42463;52.214;21.238;2024-01-16T16:33:26;99538.45;;;24.36;35.70
56582;BME280;42463;52.214;21.238;2024-01-16T16:35:59;99535.84;;;24.36;35.56
56582;BME280;42463;52.214;21.238;2024-01-16T16:38:32;99535.85;;;24.36;35.82
56582;BME280;42463;52.214;21.238;2024-01-16T16:41:05;99537.34;;;24.36;35.69
56582;BME280;42463;52.214;21.238;2024-01-16T16:43:38;99540.92;;;24.36;35.90
56582;BME280;42463;52.214;21.238;2024-01-16T16:46:12;99543.05;;;24.36;35.70
56582;BME280;42463;52.214;21.238;2024-01-16T16:48:45;99547.89;;;24.36;35.80
56582;BME280;42463;52.214;21.238;2024-01-16T16:51:20;99549.73;;;24.36;35.99
56582;BME280;42463;52.214;21.238;2024-01-16T16:53:53;99549.08;;;24.36;36.06
56582;BME280;42463;52.214;21.238;2024-01-16T16:56:26;99551.45;;;24.36;35.97
56582;BME280;42463;52.214;21.238;2024-01-16T16:58:58;99554.16;;;24.37;36.06
56582;BME280;42463;52.214;21.238;2024-01-16T17:01:32;99553.12;;;24.36;36.09
56582;BME280;42463;52.214;21.238;2024-01-16T17:04:07;99557.15;;;24.36;36.08
56582;BME280;42463;52.214;21.238;2024-01-16T17:06:40;99553.44;;;24.36;36.02
56582;BME280;42463;52.214;21.238;2024-01-16T17:09:13;99550.91;;;24.37;36.22
56582;BME280;42463;52.214;21.238;2024-01-16T17:11:50;99555.91;;;24.37;36.17
56582;BME280;42463;52.214;21.238;2024-01-16T17:14:23;99555.27;;;24.37;36.36
56582;BME280;42463;52.214;21.238;2024-01-16T17:16:55;99556.23;;;24.37;35.94
56582;BME280;42463;52.214;21.238;2024-01-16T17:19:28;99556.71;;;24.37;36.29
56582;BME280;42463;52.214;21.238;2024-01-16T17:22:02;99562.73;;;24.38;36.09
56582;BME280;42463;52.214;21.238;2024-01-16T17:24:36;99563.44;;;24.38;36.30
56582;BME280;42463;52.214;21.238;2024-01-16T17:27:10;99562.03;;;24.38;36.32
56582;BME280;42463;52.214;21.238;2024-01-16T17:29:42;99560.13;;;24.39;36.23
56582;BME280;42463;52.214;21.238;2024-01-16T17:32:16;99558.40;;;24.39;36.26
56582;BME280;42463;52.214;21.238;2024-01-16T17:34:49;99563.95;;;24.39;36.49
56582;BME280;42463;52.214;21.238;2024-01-16T17:37:22;99573.14;;;24.40;36.42
56582;BME280;42463;52.214;21.238;2024-01-16T17:39:55;99572.98;;;24.40;36.48
56582;BME280;42463;52.214;21.238;2024-01-16T17:42:27;99575.13;;;24.40;36.18
56582;BME280;42463;52.214;21.238;2024-01-16T17:45:00;99580.21;;;24.40;36.28
56582;BME280;42463;52.214;21.238;2024-01-16T17:47:33;99584.35;;;24.41;36.50
56582;BME280;42463;52.214;21.238;2024-01-16T17:50:08;99585.69;;;24.41;36.30
56582;BME280;42463;52.214;21.238;2024-01-16T17:52:42;99586.73;;;24.42;36.49
56582;BME280;42463;52.214;21.238;2024-01-16T17:55:17;99586.90;;;24.42;36.56
56582;BME280;42463;52.214;21.238;2024-01-16T17:57:50;99590.65;;;24.44;36.42
56582;BME280;42463;52.214;21.238;2024-01-16T18:00:23;99590.42;;;24.44;36.38
56582;BME280;42463;52.214;21.238;2024-01-16T18:02:57;99590.63;;;24.47;36.62
56582;BME280;42463;52.214;21.238;2024-01-16T18:05:31;99591.53;;;24.48;36.88
56582;BME280;42463;52.214;21.238;2024-01-16T18:08:05;99594.48;;;24.50;36.96
56582;BME280;42463;52.214;21.238;2024-01-16T18:10:39;99599.41;;;24.50;36.92
56582;BME280;42463;52.214;21.238;2024-01-16T18:13:13;99606.23;;;24.51;37.07
56582;BME280;42463;52.214;21.238;2024-01-16T18:15:46;99603.96;;;24.52;36.96
56582;BME280;42463;52.214;21.238;2024-01-16T18:18:18;99607.92;;;24.53;36.95
56582;BME280;42463;52.214;21.238;2024-01-16T18:20:52;99612.70;;;24.54;37.00
56582;BME280;42463;52.214;21.238;2024-01-16T18:23:27;99620.09;;;24.55;37.04
56582;BME280;42463;52.214;21.238;2024-01-16T18:25:59;99622.55;;;24.55;37.16
56582;BME280;42463;52.214;21.238;2024-01-16T18:28:32;99624.94;;;24.56;37.02
56582;BME280;42463;52.214;21.238;2024-01-16T18:31:04;99629.55;;;24.57;37.18
56582;BME280;42463;52.214;21.238;2024-01-16T18:33:37;99629.88;;;24.57;37.02
56582;BME280;42463;52.214;21.238;2024-01-16T18:36:11;99628.70;;;24.58;37.23
56582;BME280;42463;52.214;21.238;2024-01-16T18:38:44;99633.80;;;24.59;37.24
56582;BME280;42463;52.214;21.238;2024-01-16T18:41:18;99631.73;;;24.58;37.02
56582;BME280;42463;52.214;21.238;2024-01-16T18:43:51;99632.84;;;24.58;37.22
56582;BME280;42463;52.214;21.238;2024-01-16T18:46:23;99638.64;;;24.59;37.03
56582;BME280;42463;52.214;21.238;2024-01-16T18:48:57;99635.20;;;24.58;37.06
56582;BME280;42463;52.214;21.238;2024-01-16T18:51:30;99639.56;;;24.58;36.85
56582;BME280;42463;52.214;21.238;2024-01-16T18:54:03;99641.86;;;24.58;36.72
56582;BME280;42463;52.214;21.238;2024-01-16T18:56:35;99647.87;;;24.57;36.77
56582;BME280;42463;52.214;21.238;2024-01-16T18:59:10;99647.23;;;24.57;36.63
56582;BME280;42463;52.214;21.238;2024-01-16T19:01:42;99647.09;;;24.58;36.54
56582;BME280;42463;52.214;21.238;2024-01-16T19:04:16;99651.11;;;24.57;36.26
56582;BME280;42463;52.214;21.238;2024-01-16T19:06:52;99650.14;;;24.56;36.22
56582;BME280;42463;52.214;21.238;2024-01-16T19:09:24;99649.02;;;24.55;36.30
56582;BME280;42463;52.214;21.238;2024-01-16T19:12:04;99653.66;;;24.53;35.98
56582;BME280;42463;52.214;21.238;2024-01-16T19:14:37;99660.30;;;24.53;36.26
56582;BME280;42463;52.214;21.238;2024-01-16T19:17:10;99661.07;;;24.51;36.29
56582;BME280;42463;52.214;21.238;2024-01-16T19:19:43;99664.06;;;24.50;36.22
56582;BME280;42463;52.214;21.238;2024-01-16T19:22:15;99664.77;;;24.50;36.25
56582;BME280;42463;52.214;21.238;2024-01-16T19:24:48;99668.23;;;24.49;36.27
56582;BME280;42463;52.214;21.238;2024-01-16T19:27:21;99677.02;;;24.49;36.32
56582;BME280;42463;52.214;21.238;2024-01-16T19:29:56;99680.98;;;24.49;36.35
56582;BME280;42463;52.214;21.238;2024-01-16T19:32:31;99686.61;;;24.48;36.33
56582;BME280;42463;52.214;21.238;2024-01-16T19:35:04;99688.50;;;24.48;36.43
56582;BME280;42463;52.214;21.238;2024-01-16T19:37:39;99690.25;;;24.48;36.29
56582;BME280;42463;52.214;21.238;2024-01-16T19:40:13;99699.91;;;24.48;36.20
56582;BME280;42463;52.214;21.238;2024-01-16T19:42:47;99702.14;;;24.49;36.15
56582;BME280;42463;52.214;21.238;2024-01-16T19:45:21;99698.11;;;24.49;36.33
56582;BME280;42463;52.214;21.238;2024-01-16T19:47:54;99699.95;;;24.50;36.43
56582;BME280;42463;52.214;21.238;2024-01-16T19:50:27;99695.53;;;24.51;36.32
56582;BME280;42463;52.214;21.238;2024-01-16T19:53:00;99692.21;;;24.52;36.38
56582;BME280;42463;52.214;21.238;2024-01-16T19:55:34;99694.13;;;24.53;36.88
56582;BME280;42463;52.214;21.238;2024-01-16T19:58:07;99691.29;;;24.54;36.81
56582;BME280;42463;52.214;21.238;2024-01-16T20:00:42;99695.20;;;24.55;37.17
56582;BME280;42463;52.214;21.238;2024-01-16T20:03:16;99693.56;;;24.56;37.42
56582;BME280;42463;52.214;21.238;2024-01-16T20:05:49;99699.14;;;24.58;37.67
56582;BME280;42463;52.214;21.238;2024-01-16T20:08:22;99699.58;;;24.60;37.71
56582;BME280;42463;52.214;21.238;2024-01-16T20:10:57;99702.61;;;24.61;37.76
56582;BME280;42463;52.214;21.238;2024-01-16T20:13:30;99701.51;;;24.61;37.90
56582;BME280;42463;52.214;21.238;2024-01-16T20:16:03;99705.91;;;24.63;38.08
56582;BME280;42463;52.214;21.238;2024-01-16T20:18:39;99711.55;;;24.64;38.00
56582;BME280;42463;52.214;21.238;2024-01-16T20:21:14;99714.04;;;24.66;38.83
56582;BME280;42463;52.214;21.238;2024-01-16T20:23:47;99720.40;;;24.66;39.11
56582;BME280;42463;52.214;21.238;2024-01-16T20:26:21;99735.84;;;24.66;39.48
56582;BME280;42463;52.214;21.238;2024-01-16T20:28:53;99741.20;;;24.64;39.80
56582;BME280;42463;52.214;21.238;2024-01-16T20:31:26;99741.39;;;24.62;39.94
56582;BME280;42463;52.214;21.238;2024-01-16T20:33:59;99742.79;;;24.61;39.96
56582;BME280;42463;52.214;21.238;2024-01-16T20:36:31;99742.46;;;24.61;40.09
56582;BME280;42463;52.214;21.238;2024-01-16T20:39:04;99749.10;;;24.60;40.07
56582;BME280;42463;52.214;21.238;2024-01-16T20:41:37;99745.14;;;24.60;40.03
56582;BME280;42463;52.214;21.238;2024-01-16T20:44:10;99748.70;;;24.60;40.07
56582;BME280;42463;52.214;21.238;2024-01-16T20:46:48;99754.33;;;24.59;40.03
56582;BME280;42463;52.214;21.238;2024-01-16T20:49:21;99748.61;;;24.59;39.99
56582;BME280;42463;52.214;21.238;2024-01-16T20:51:54;99746.86;;;24.58;39.77
56582;BME280;42463;52.214;21.238;2024-01-16T20:54:28;99740.91;;;24.59;39.76
56582;BME280;42463;52.214;21.238;2024-01-16T20:57:01;99737.21;;;24.60;39.88
56582;BME280;42463;52.214;21.238;2024-01-16T20:59:33;99737.64;;;24.61;40.09
56582;BME280;42463;52.214;21.238;2024-01-16T21:02:06;99728.77;;;24.62;40.25
56582;BME280;42463;52.214;21.238;2024-01-16T21:04:38;99724.28;;;24.63;40.14
56582;BME280;42463;52.214;21.238;2024-01-16T21:07:11;99716.45;;;24.63;39.85
56582;BME280;42463;52.214;21.238;2024-01-16T21:09:45;99712.98;;;24.64;39.79
56582;BME280;42463;52.214;21.238;2024-01-16T21:12:17;99720.92;;;24.65;39.92
56582;BME280;42463;52.214;21.238;2024-01-16T21:14:49;99727.75;;;24.66;39.98